EDAC/ADC METAR and TAF weather

Enter ICAO airport designator
Station Type Date Time Source
EDAC METAR 2021/04/13 06:50 UTC NOAA

EDAC 130650Z 25004KT CAVOK 01/M01 Q1029


Station Type Date Time Source
EDAC Decoded METAR 2021/04/13 06:50 UTC NOAA

Altenburg Nobitz, Germany (EDAC) 50-58N 012-30E
Apr 13, 2021 - 02:50 AM EDT / 2021.04.13 0650 UTC
Wind: from the WSW (250 degrees) at 5 MPH (4 KT):0
Visibility: greater than 7 mile(s):0
Temperature: 33 F (1 C)
Windchill: 28 F (-2 C):1
Dew Point: 30 F (-1 C)
Relative Humidity: 86%
Pressure (altimeter): 30.39 in. Hg (1029 hPa)
ob: EDAC 130650Z 25004KT CAVOK 01/M01 Q1029
cycle: 7

Station Type Date Time Source
EDAC TAF UTC NOAA

Error!

Example: see airport list